GOMOS weather

Agriturismo Turus
Mossa (GO), Friuli-Venezia Giulia, Italy

Public forecast

Using degrees Celsius for public forecast. Weather courtesy of forecast.io.

METAR (pilot weather report)

Closest report is Trieste–Friuli Venezia Giulia Airport, 6.5 nm (12.0 km) SSW. Retrieved 2019/09/17 05:20 UTC (10 minutes ago):

LIPQ 170520Z 10003KT 9999 BKN050 19/17 Q1015

TAF (pilot weather forecast)

Forecast is more than 12 hours old.

Closest forecast is Trieste–Friuli Venezia Giulia Airport, 6.5 nm (12.0 km) SSW. Retrieved 2019/09/16 00:26 UTC (1 day ago):

TAF LIPQ 162300Z 1700/1724 VRB05KT 9999 SCT040 TEMPO 1722/1724 4000 SHRA